sensor_id;sensor_type;location;lat;lon;timestamp;pressure;altitude;pressure_sealevel;temperature;humidity
48874;BME280;66155;46.204;5.220;2022-12-18T00:04:25;99565.41;;;-2.37;78.51
48874;BME280;66155;46.204;5.220;2022-12-18T00:09:26;99559.31;;;-2.26;78.06
48874;BME280;66155;46.204;5.220;2022-12-18T00:14:27;99548.78;;;-2.41;78.62
48874;BME280;66155;46.204;5.220;2022-12-18T00:19:27;99559.66;;;-2.39;78.81
48874;BME280;66155;46.204;5.220;2022-12-18T00:24:28;99569.94;;;-2.31;78.47
48874;BME280;66155;46.204;5.220;2022-12-18T00:29:28;99571.25;;;-2.55;78.93
48874;BME280;66155;46.204;5.220;2022-12-18T00:34:29;99569.53;;;-2.64;79.45
48874;BME280;66155;46.204;5.220;2022-12-18T00:39:30;99564.91;;;-2.51;80.00
48874;BME280;66155;46.204;5.220;2022-12-18T00:44:30;99560.31;;;-2.84;81.09
48874;BME280;66155;46.204;5.220;2022-12-18T00:49:31;99562.44;;;-2.70;80.83
48874;BME280;66155;46.204;5.220;2022-12-18T00:54:31;99581.50;;;-2.64;80.68
48874;BME280;66155;46.204;5.220;2022-12-18T00:59:31;99584.28;;;-2.58;80.21
48874;BME280;66155;46.204;5.220;2022-12-18T01:04:32;99596.50;;;-2.52;79.88
48874;BME280;66155;46.204;5.220;2022-12-18T01:09:33;99598.72;;;-2.76;80.52
48874;BME280;66155;46.204;5.220;2022-12-18T01:14:34;99601.13;;;-2.75;80.71
48874;BME280;66155;46.204;5.220;2022-12-18T01:19:35;99600.34;;;-2.85;82.05
48874;BME280;66155;46.204;5.220;2022-12-18T01:24:35;99605.25;;;-2.64;81.63
48874;BME280;66155;46.204;5.220;2022-12-18T01:29:36;99598.41;;;-2.63;81.05
48874;BME280;66155;46.204;5.220;2022-12-18T01:34:37;99608.22;;;-2.69;81.43
48874;BME280;66155;46.204;5.220;2022-12-18T01:39:37;99624.28;;;-2.49;80.93
48874;BME280;66155;46.204;5.220;2022-12-18T01:50:27;99616.34;;;-2.45;81.35
48874;BME280;66155;46.204;5.220;2022-12-18T01:55:31;99619.94;;;-2.38;80.71
48874;BME280;66155;46.204;5.220;2022-12-18T02:00:33;99619.03;;;-2.47;81.66
48874;BME280;66155;46.204;5.220;2022-12-18T02:05:36;99623.06;;;-2.44;81.34
48874;BME280;66155;46.204;5.220;2022-12-18T02:16:16;99630.19;;;-2.11;80.69
48874;BME280;66155;46.204;5.220;2022-12-18T02:26:37;99629.06;;;-1.98;80.31
48874;BME280;66155;46.204;5.220;2022-12-18T02:32:13;99629.81;;;-1.88;80.37
48874;BME280;66155;46.204;5.220;2022-12-18T02:37:16;99620.69;;;-1.91;80.20
48874;BME280;66155;46.204;5.220;2022-12-18T02:42:19;99626.66;;;-1.72;79.89
48874;BME280;66155;46.204;5.220;2022-12-18T02:47:22;99620.56;;;-1.71;79.96
48874;BME280;66155;46.204;5.220;2022-12-18T02:57:36;99626.94;;;-1.57;79.78
48874;BME280;66155;46.204;5.220;2022-12-18T03:03:06;99628.06;;;-1.60;79.20
48874;BME280;66155;46.204;5.220;2022-12-18T03:08:21;99617.19;;;-1.44;79.46
48874;BME280;66155;46.204;5.220;2022-12-18T03:19:01;99614.50;;;-1.24;78.93
48874;BME280;66155;46.204;5.220;2022-12-18T03:24:06;99610.44;;;-1.27;79.15
48874;BME280;66155;46.204;5.220;2022-12-18T03:29:12;99601.91;;;-1.18;78.90
48874;BME280;66155;46.204;5.220;2022-12-18T03:34:21;99613.28;;;-1.12;78.82
48874;BME280;66155;46.204;5.220;2022-12-18T03:39:24;99609.19;;;-1.23;78.99
48874;BME280;66155;46.204;5.220;2022-12-18T03:44:31;99602.22;;;-1.21;79.35
48874;BME280;66155;46.204;5.220;2022-12-18T03:54:54;99597.09;;;-1.21;79.23
48874;BME280;66155;46.204;5.220;2022-12-18T04:00:09;99599.06;;;-1.15;78.88
48874;BME280;66155;46.204;5.220;2022-12-18T04:05:12;99602.84;;;-1.01;78.71
48874;BME280;66155;46.204;5.220;2022-12-18T04:10:15;99602.34;;;-1.04;79.06
48874;BME280;66155;46.204;5.220;2022-12-18T04:15:16;99591.97;;;-1.03;79.28
48874;BME280;66155;46.204;5.220;2022-12-18T04:20:17;99600.94;;;-0.99;79.55
48874;BME280;66155;46.204;5.220;2022-12-18T04:25:18;99584.13;;;-1.01;79.56
48874;BME280;66155;46.204;5.220;2022-12-18T04:30:18;99595.53;;;-0.96;79.47
48874;BME280;66155;46.204;5.220;2022-12-18T04:35:19;99614.66;;;-1.00;79.52
48874;BME280;66155;46.204;5.220;2022-12-18T04:40:19;99613.09;;;-0.92;79.87
48874;BME280;66155;46.204;5.220;2022-12-18T04:45:20;99615.53;;;-0.91;79.53
48874;BME280;66155;46.204;5.220;2022-12-18T04:50:20;99622.34;;;-0.82;79.25
48874;BME280;66155;46.204;5.220;2022-12-18T04:55:21;99616.03;;;-0.87;80.09
48874;BME280;66155;46.204;5.220;2022-12-18T05:00:24;99617.53;;;-0.77;79.76
48874;BME280;66155;46.204;5.220;2022-12-18T05:05:25;99610.56;;;-0.66;79.00
48874;BME280;66155;46.204;5.220;2022-12-18T05:10:25;99620.81;;;-0.66;79.28
48874;BME280;66155;46.204;5.220;2022-12-18T05:15:29;99622.63;;;-0.59;79.11
48874;BME280;66155;46.204;5.220;2022-12-18T05:20:30;99618.03;;;-0.55;79.24
48874;BME280;66155;46.204;5.220;2022-12-18T05:25:31;99626.28;;;-0.61;79.31
48874;BME280;66155;46.204;5.220;2022-12-18T05:30:31;99629.06;;;-0.54;79.59
48874;BME280;66155;46.204;5.220;2022-12-18T05:35:35;99624.59;;;-0.52;79.32
48874;BME280;66155;46.204;5.220;2022-12-18T05:40:35;99619.97;;;-0.49;79.62
48874;BME280;66155;46.204;5.220;2022-12-18T05:45:37;99633.41;;;-0.47;79.23
48874;BME280;66155;46.204;5.220;2022-12-18T05:50:39;99639.28;;;-0.54;79.53
48874;BME280;66155;46.204;5.220;2022-12-18T05:55:41;99648.25;;;-0.50;79.93
48874;BME280;66155;46.204;5.220;2022-12-18T06:00:45;99653.03;;;-0.55;79.91
48874;BME280;66155;46.204;5.220;2022-12-18T06:05:45;99650.63;;;-0.57;80.36
48874;BME280;66155;46.204;5.220;2022-12-18T06:10:50;99659.16;;;-0.48;79.93
48874;BME280;66155;46.204;5.220;2022-12-18T06:15:51;99668.97;;;-0.44;79.89
48874;BME280;66155;46.204;5.220;2022-12-18T06:20:56;99674.47;;;-0.30;79.21
48874;BME280;66155;46.204;5.220;2022-12-18T06:25:57;99677.34;;;-0.33;79.91
48874;BME280;66155;46.204;5.220;2022-12-18T06:30:57;99685.53;;;-0.30;79.94
48874;BME280;66155;46.204;5.220;2022-12-18T06:36:16;99699.63;;;-0.26;79.82
48874;BME280;66155;46.204;5.220;2022-12-18T06:41:20;99697.47;;;-0.39;80.40
48874;BME280;66155;46.204;5.220;2022-12-18T06:46:20;99697.47;;;-0.39;80.27
48874;BME280;66155;46.204;5.220;2022-12-18T06:51:22;99687.09;;;-0.37;80.37
48874;BME280;66155;46.204;5.220;2022-12-18T06:56:24;99693.34;;;-0.31;80.45
48874;BME280;66155;46.204;5.220;2022-12-18T07:01:24;99695.94;;;-0.23;80.04
48874;BME280;66155;46.204;5.220;2022-12-18T07:06:25;99689.13;;;-0.14;80.28
48874;BME280;66155;46.204;5.220;2022-12-18T07:11:26;99697.91;;;-0.17;80.27
48874;BME280;66155;46.204;5.220;2022-12-18T07:16:27;99701.97;;;-0.06;79.73
48874;BME280;66155;46.204;5.220;2022-12-18T07:21:30;99698.81;;;0.00;79.73
48874;BME280;66155;46.204;5.220;2022-12-18T07:26:31;99687.41;;;-0.06;79.72
48874;BME280;66155;46.204;5.220;2022-12-18T07:31:31;99690.47;;;-0.02;79.59
48874;BME280;66155;46.204;5.220;2022-12-18T07:36:32;99689.56;;;0.07;79.67
48874;BME280;66155;46.204;5.220;2022-12-18T07:41:32;99703.03;;;0.09;79.66
48874;BME280;66155;46.204;5.220;2022-12-18T07:46:33;99712.16;;;0.12;79.74
48874;BME280;66155;46.204;5.220;2022-12-18T07:51:33;99714.25;;;0.16;78.96
48874;BME280;66155;46.204;5.220;2022-12-18T07:56:34;99700.38;;;0.27;78.98
48874;BME280;66155;46.204;5.220;2022-12-18T08:01:34;99685.19;;;0.34;78.88
48874;BME280;66155;46.204;5.220;2022-12-18T08:06:35;99694.06;;;0.13;78.96
48874;BME280;66155;46.204;5.220;2022-12-18T08:11:35;99689.44;;;0.17;78.82
48874;BME280;66155;46.204;5.220;2022-12-18T08:16:36;99689.88;;;0.12;79.06
48874;BME280;66155;46.204;5.220;2022-12-18T08:21:37;99674.34;;;0.14;78.80
48874;BME280;66155;46.204;5.220;2022-12-18T08:26:37;99678.53;;;0.15;78.91
48874;BME280;66155;46.204;5.220;2022-12-18T08:31:38;99676.31;;;0.28;78.40
48874;BME280;66155;46.204;5.220;2022-12-18T08:36:38;99690.66;;;0.47;77.70
48874;BME280;66155;46.204;5.220;2022-12-18T08:41:39;99691.50;;;0.56;77.63
48874;BME280;66155;46.204;5.220;2022-12-18T08:46:41;99686.06;;;0.67;77.28
48874;BME280;66155;46.204;5.220;2022-12-18T08:51:42;99693.59;;;0.61;77.60
48874;BME280;66155;46.204;5.220;2022-12-18T08:56:42;99682.72;;;0.83;77.20
48874;BME280;66155;46.204;5.220;2022-12-18T09:01:43;99681.88;;;0.58;77.32
48874;BME280;66155;46.204;5.220;2022-12-18T09:06:43;99698.00;;;0.42;77.65
48874;BME280;66155;46.204;5.220;2022-12-18T09:11:47;99693.53;;;0.44;77.35
48874;BME280;66155;46.204;5.220;2022-12-18T09:16:47;99707.66;;;0.56;77.18
48874;BME280;66155;46.204;5.220;2022-12-18T09:21:47;99716.66;;;0.61;77.28
48874;BME280;66155;46.204;5.220;2022-12-18T09:26:48;99727.91;;;0.76;76.81
48874;BME280;66155;46.204;5.220;2022-12-18T09:31:48;99729.16;;;0.55;77.19
48874;BME280;66155;46.204;5.220;2022-12-18T09:36:49;99735.97;;;0.89;76.80
48874;BME280;66155;46.204;5.220;2022-12-18T09:41:52;99729.59;;;1.02;76.09
48874;BME280;66155;46.204;5.220;2022-12-18T09:47:02;99727.28;;;0.66;77.17
48874;BME280;66155;46.204;5.220;2022-12-18T09:57:23;99729.41;;;1.11;76.31
48874;BME280;66155;46.204;5.220;2022-12-18T10:02:26;99729.59;;;1.18;76.29
48874;BME280;66155;46.204;5.220;2022-12-18T10:07:38;99734.41;;;1.29;76.06
48874;BME280;66155;46.204;5.220;2022-12-18T10:23:36;99691.03;;;2.23;74.43
48874;BME280;66155;46.204;5.220;2022-12-18T10:28:40;99685.81;;;2.40;74.40
48874;BME280;66155;46.204;5.220;2022-12-18T10:33:41;99682.81;;;2.59;74.08
48874;BME280;66155;46.204;5.220;2022-12-18T10:38:42;99677.69;;;2.82;74.09
48874;BME280;66155;46.204;5.220;2022-12-18T10:43:42;99679.75;;;3.10;73.78
48874;BME280;66155;46.204;5.220;2022-12-18T10:53:56;99664.19;;;3.41;73.76
48874;BME280;66155;46.204;5.220;2022-12-18T10:59:03;99671.47;;;3.38;73.68
48874;BME280;66155;46.204;5.220;2022-12-18T11:04:08;99654.78;;;3.49;73.92
48874;BME280;66155;46.204;5.220;2022-12-18T11:09:25;99650.50;;;3.41;74.45
48874;BME280;66155;46.204;5.220;2022-12-18T11:14:42;99648.88;;;3.25;75.56
48874;BME280;66155;46.204;5.220;2022-12-18T11:19:43;99647.03;;;2.96;76.63
48874;BME280;66155;46.204;5.220;2022-12-18T11:24:59;99638.34;;;3.35;75.83
48874;BME280;66155;46.204;5.220;2022-12-18T11:35:26;99628.94;;;3.72;75.44
48874;BME280;66155;46.204;5.220;2022-12-18T11:40:35;99627.13;;;3.87;75.16
48874;BME280;66155;46.204;5.220;2022-12-18T11:45:45;99621.00;;;4.03;75.09
48874;BME280;66155;46.204;5.220;2022-12-18T11:50:51;99620.09;;;4.11;75.25
48874;BME280;66155;46.204;5.220;2022-12-18T12:07:23;99610.16;;;4.44;76.48
48874;BME280;66155;46.204;5.220;2022-12-18T12:12:52;99603.63;;;4.70;76.02
48874;BME280;66155;46.204;5.220;2022-12-18T12:23:08;99583.47;;;5.43;77.00
48874;BME280;66155;46.204;5.220;2022-12-18T12:38:43;99554.34;;;7.31;73.07
48874;BME280;66155;46.204;5.220;2022-12-18T12:43:47;99558.97;;;7.74;72.17
48874;BME280;66155;46.204;5.220;2022-12-18T12:48:55;99544.47;;;8.05;71.10
48874;BME280;66155;46.204;5.220;2022-12-18T12:53:57;99540.28;;;8.43;69.33
48874;BME280;66155;46.204;5.220;2022-12-18T13:09:24;99517.53;;;9.25;66.81
48874;BME280;66155;46.204;5.220;2022-12-18T13:14:39;99523.69;;;9.49;65.41
48874;BME280;66155;46.204;5.220;2022-12-18T13:19:41;99519.13;;;10.05;64.98
48874;BME280;66155;46.204;5.220;2022-12-18T13:24:41;99533.25;;;12.66;58.00
48874;BME280;66155;46.204;5.220;2022-12-18T13:29:43;99500.81;;;18.22;43.66
48874;BME280;66155;46.204;5.220;2022-12-18T13:34:43;99491.16;;;19.96;38.67
48874;BME280;66155;46.204;5.220;2022-12-18T13:39:44;99500.50;;;19.74;38.91
48874;BME280;66155;46.204;5.220;2022-12-18T13:44:44;99489.56;;;21.02;36.43
48874;BME280;66155;46.204;5.220;2022-12-18T13:49:46;99481.13;;;21.87;33.79
48874;BME280;66155;46.204;5.220;2022-12-18T13:55:01;99478.13;;;23.13;31.75
48874;BME280;66155;46.204;5.220;2022-12-18T14:00:25;99489.25;;;23.24;30.97
48874;BME280;66155;46.204;5.220;2022-12-18T14:10:28;99489.69;;;22.60;31.96
48874;BME280;66155;46.204;5.220;2022-12-18T14:15:33;99494.66;;;19.53;35.47
48874;BME280;66155;46.204;5.220;2022-12-18T14:20:34;99502.28;;;14.50;45.71
48874;BME280;66155;46.204;5.220;2022-12-18T14:25:34;99506.63;;;12.02;52.09
48874;BME280;66155;46.204;5.220;2022-12-18T14:30:37;99512.47;;;11.11;54.78
48874;BME280;66155;46.204;5.220;2022-12-18T14:35:40;99517.69;;;10.40;57.26
48874;BME280;66155;46.204;5.220;2022-12-18T14:40:42;99507.31;;;9.91;58.66
48874;BME280;66155;46.204;5.220;2022-12-18T14:45:43;99500.47;;;9.66;59.84
48874;BME280;66155;46.204;5.220;2022-12-18T14:50:45;99506.22;;;9.38;60.71
48874;BME280;66155;46.204;5.220;2022-12-18T14:55:54;99510.41;;;9.21;60.82
48874;BME280;66155;46.204;5.220;2022-12-18T15:00:54;99511.34;;;9.08;61.05
48874;BME280;66155;46.204;5.220;2022-12-18T15:05:55;99507.78;;;13.35;50.47
48874;BME280;66155;46.204;5.220;2022-12-18T15:10:55;99505.78;;;10.32;57.44
48874;BME280;66155;46.204;5.220;2022-12-18T15:16:00;99525.38;;;9.56;60.08
48874;BME280;66155;46.204;5.220;2022-12-18T15:21:10;99542.69;;;9.31;60.68
48874;BME280;66155;46.204;5.220;2022-12-18T15:26:13;99546.34;;;9.05;61.78
48874;BME280;66155;46.204;5.220;2022-12-18T15:36:16;99557.59;;;8.74;62.92
48874;BME280;66155;46.204;5.220;2022-12-18T15:41:19;99552.75;;;8.59;63.30
48874;BME280;66155;46.204;5.220;2022-12-18T15:46:23;99545.84;;;8.46;63.77
48874;BME280;66155;46.204;5.220;2022-12-18T15:56:24;99541.16;;;8.30;64.40
48874;BME280;66155;46.204;5.220;2022-12-18T16:01:44;99545.16;;;8.26;64.44
48874;BME280;66155;46.204;5.220;2022-12-18T16:06:46;99543.00;;;8.23;64.99
48874;BME280;66155;46.204;5.220;2022-12-18T16:11:47;99554.97;;;8.17;64.69
48874;BME280;66155;46.204;5.220;2022-12-18T16:16:52;99560.56;;;8.21;64.71
48874;BME280;66155;46.204;5.220;2022-12-18T16:21:55;99564.00;;;8.14;65.21
48874;BME280;66155;46.204;5.220;2022-12-18T16:26:58;99581.16;;;8.15;64.85
48874;BME280;66155;46.204;5.220;2022-12-18T16:32:00;99594.09;;;8.22;64.55
48874;BME280;66155;46.204;5.220;2022-12-18T16:37:03;99578.41;;;8.10;65.21
48874;BME280;66155;46.204;5.220;2022-12-18T16:47:07;99553.72;;;7.94;65.35
48874;BME280;66155;46.204;5.220;2022-12-18T16:52:08;99544.38;;;7.87;66.06
48874;BME280;66155;46.204;5.220;2022-12-18T16:57:12;99520.25;;;7.79;65.94
48874;BME280;66155;46.204;5.220;2022-12-18T17:07:15;99526.47;;;7.78;65.92
48874;BME280;66155;46.204;5.220;2022-12-18T17:12:16;99532.63;;;7.84;65.97
48874;BME280;66155;46.204;5.220;2022-12-18T17:17:17;99531.19;;;7.88;65.69
48874;BME280;66155;46.204;5.220;2022-12-18T17:22:19;99530.19;;;7.89;65.44
48874;BME280;66155;46.204;5.220;2022-12-18T17:27:20;99525.78;;;7.90;65.83
48874;BME280;66155;46.204;5.220;2022-12-18T17:32:20;99531.56;;;7.92;65.57
48874;BME280;66155;46.204;5.220;2022-12-18T17:37:21;99520.41;;;7.91;65.75
48874;BME280;66155;46.204;5.220;2022-12-18T17:42:21;99532.38;;;7.92;65.43
48874;BME280;66155;46.204;5.220;2022-12-18T17:47:22;99525.19;;;7.94;65.32
48874;BME280;66155;46.204;5.220;2022-12-18T17:52:22;99532.31;;;7.99;64.74
48874;BME280;66155;46.204;5.220;2022-12-18T17:57:23;99529.91;;;8.04;64.87
48874;BME280;66155;46.204;5.220;2022-12-18T18:02:23;99523.06;;;8.10;64.83
48874;BME280;66155;46.204;5.220;2022-12-18T18:07:24;99522.09;;;8.11;64.63
48874;BME280;66155;46.204;5.220;2022-12-18T18:12:24;99532.00;;;8.21;64.05
48874;BME280;66155;46.204;5.220;2022-12-18T18:17:44;99549.34;;;8.27;64.08
48874;BME280;66155;46.204;5.220;2022-12-18T18:22:44;99551.53;;;8.30;63.88
48874;BME280;66155;46.204;5.220;2022-12-18T18:27:45;99545.28;;;8.37;63.70
48874;BME280;66155;46.204;5.220;2022-12-18T18:32:45;99533.28;;;8.43;63.42
48874;BME280;66155;46.204;5.220;2022-12-18T18:37:49;99538.84;;;8.47;63.12
48874;BME280;66155;46.204;5.220;2022-12-18T18:42:49;99538.63;;;8.48;63.64
48874;BME280;66155;46.204;5.220;2022-12-18T18:47:50;99540.00;;;8.51;63.34
48874;BME280;66155;46.204;5.220;2022-12-18T18:52:50;99535.22;;;8.54;62.87
48874;BME280;66155;46.204;5.220;2022-12-18T18:57:51;99536.00;;;8.55;63.17
48874;BME280;66155;46.204;5.220;2022-12-18T19:02:51;99541.78;;;8.57;63.61
48874;BME280;66155;46.204;5.220;2022-12-18T19:07:52;99543.78;;;8.55;63.25
48874;BME280;66155;46.204;5.220;2022-12-18T19:12:52;99538.22;;;8.51;63.03
48874;BME280;66155;46.204;5.220;2022-12-18T19:18:11;99536.25;;;8.47;63.65
48874;BME280;66155;46.204;5.220;2022-12-18T19:23:12;99519.47;;;8.49;63.13
48874;BME280;66155;46.204;5.220;2022-12-18T19:28:12;99515.09;;;8.43;63.45
48874;BME280;66155;46.204;5.220;2022-12-18T19:33:13;99517.09;;;8.41;63.37
48874;BME280;66155;46.204;5.220;2022-12-18T19:38:13;99514.91;;;8.38;63.14
48874;BME280;66155;46.204;5.220;2022-12-18T19:43:14;99536.66;;;8.44;63.08
48874;BME280;66155;46.204;5.220;2022-12-18T19:48:15;99523.44;;;8.52;63.09
48874;BME280;66155;46.204;5.220;2022-12-18T19:53:15;99492.41;;;8.57;62.88
48874;BME280;66155;46.204;5.220;2022-12-18T19:58:15;99511.38;;;8.57;62.83
48874;BME280;66155;46.204;5.220;2022-12-18T20:03:16;99534.88;;;8.69;62.48
48874;BME280;66155;46.204;5.220;2022-12-18T20:08:16;99535.09;;;8.68;62.56
48874;BME280;66155;46.204;5.220;2022-12-18T20:13:17;99533.66;;;8.72;62.65
48874;BME280;66155;46.204;5.220;2022-12-18T20:18:17;99532.06;;;8.71;62.70
48874;BME280;66155;46.204;5.220;2022-12-18T20:23:18;99529.47;;;8.71;62.60
48874;BME280;66155;46.204;5.220;2022-12-18T20:28:19;99524.06;;;8.72;62.03
48874;BME280;66155;46.204;5.220;2022-12-18T20:33:20;99522.63;;;8.77;61.64
48874;BME280;66155;46.204;5.220;2022-12-18T20:38:20;99529.34;;;8.84;61.31
48874;BME280;66155;46.204;5.220;2022-12-18T20:43:24;99521.28;;;8.92;61.13
48874;BME280;66155;46.204;5.220;2022-12-18T20:48:24;99513.28;;;8.94;60.87
48874;BME280;66155;46.204;5.220;2022-12-18T20:53:25;99515.66;;;8.96;60.82
48874;BME280;66155;46.204;5.220;2022-12-18T20:58:25;99474.22;;;9.01;60.38
48874;BME280;66155;46.204;5.220;2022-12-18T21:03:26;99504.34;;;9.08;60.16
48874;BME280;66155;46.204;5.220;2022-12-18T21:08:26;99515.66;;;9.14;60.07
48874;BME280;66155;46.204;5.220;2022-12-18T21:13:27;99516.03;;;9.18;59.89
48874;BME280;66155;46.204;5.220;2022-12-18T21:18:27;99510.97;;;9.23;59.96
48874;BME280;66155;46.204;5.220;2022-12-18T21:23:28;99487.78;;;9.21;60.05
48874;BME280;66155;46.204;5.220;2022-12-18T21:28:28;99529.38;;;9.21;59.41
48874;BME280;66155;46.204;5.220;2022-12-18T21:33:29;99529.38;;;9.21;60.61
48874;BME280;66155;46.204;5.220;2022-12-18T21:38:29;99519.34;;;9.25;60.70
48874;BME280;66155;46.204;5.220;2022-12-18T21:43:30;99532.72;;;9.28;60.22
48874;BME280;66155;46.204;5.220;2022-12-18T21:48:49;99524.69;;;9.30;60.12
48874;BME280;66155;46.204;5.220;2022-12-18T21:53:49;99534.09;;;9.31;60.10
48874;BME280;66155;46.204;5.220;2022-12-18T21:58:50;99553.88;;;9.32;59.91
48874;BME280;66155;46.204;5.220;2022-12-18T22:03:51;99572.44;;;9.36;59.81
48874;BME280;66155;46.204;5.220;2022-12-18T22:08:52;99565.66;;;9.35;59.89
48874;BME280;66155;46.204;5.220;2022-12-18T22:13:52;99570.41;;;9.38;59.80
48874;BME280;66155;46.204;5.220;2022-12-18T22:18:53;99579.25;;;9.37;59.91
48874;BME280;66155;46.204;5.220;2022-12-18T22:23:59;99572.03;;;9.39;59.96
48874;BME280;66155;46.204;5.220;2022-12-18T22:29:00;99555.63;;;9.38;59.58
48874;BME280;66155;46.204;5.220;2022-12-18T22:34:19;99537.78;;;9.42;59.64
48874;BME280;66155;46.204;5.220;2022-12-18T22:39:21;99538.13;;;9.45;60.09
48874;BME280;66155;46.204;5.220;2022-12-18T22:44:28;99538.84;;;9.52;59.14
48874;BME280;66155;46.204;5.220;2022-12-18T22:49:28;99527.78;;;9.57;58.96
48874;BME280;66155;46.204;5.220;2022-12-18T22:54:29;99534.16;;;9.61;59.42
48874;BME280;66155;46.204;5.220;2022-12-18T22:59:29;99527.28;;;9.67;59.19
48874;BME280;66155;46.204;5.220;2022-12-18T23:04:30;99528.84;;;9.68;58.80
48874;BME280;66155;46.204;5.220;2022-12-18T23:09:31;99537.00;;;9.71;59.07
48874;BME280;66155;46.204;5.220;2022-12-18T23:14:32;99510.97;;;9.71;58.91
48874;BME280;66155;46.204;5.220;2022-12-18T23:19:35;99517.34;;;9.76;58.74
48874;BME280;66155;46.204;5.220;2022-12-18T23:24:36;99516.31;;;9.77;58.86
48874;BME280;66155;46.204;5.220;2022-12-18T23:29:36;99524.50;;;9.80;59.35
48874;BME280;66155;46.204;5.220;2022-12-18T23:34:37;99529.91;;;9.79;59.14
48874;BME280;66155;46.204;5.220;2022-12-18T23:39:37;99526.16;;;9.75;58.99
48874;BME280;66155;46.204;5.220;2022-12-18T23:44:38;99516.31;;;9.77;59.04
48874;BME280;66155;46.204;5.220;2022-12-18T23:49:41;99497.31;;;9.76;59.50
48874;BME280;66155;46.204;5.220;2022-12-18T23:54:42;99510.13;;;9.78;59.39
48874;BME280;66155;46.204;5.220;2022-12-18T23:59:42;99523.13;;;9.78;59.20
